sensor_id;sensor_type;location;lat;lon;timestamp;temperature;humidity
1936;DHT22;969;49.892;10.896;2023-02-15T09:02:52;12.00;46.40
1936;DHT22;969;49.892;10.896;2023-02-15T09:05:18;13.40;46.40
1936;DHT22;969;49.892;10.896;2023-02-15T09:07:43;13.50;46.40
1936;DHT22;969;49.892;10.896;2023-02-15T09:10:09;13.50;46.20
1936;DHT22;969;49.892;10.896;2023-02-15T09:12:35;13.70;46.10
1936;DHT22;969;49.892;10.896;2023-02-15T09:15:00;13.80;46.00
1936;DHT22;969;49.892;10.896;2023-02-15T09:17:26;13.90;45.80
1936;DHT22;969;49.892;10.896;2023-02-15T09:19:51;14.00;45.80
1936;DHT22;969;49.892;10.896;2023-02-15T09:22:17;14.10;45.60
1936;DHT22;969;49.892;10.896;2023-02-15T09:24:43;14.20;45.50
1936;DHT22;969;49.892;10.896;2023-02-15T09:27:08;14.30;45.40
1936;DHT22;969;49.892;10.896;2023-02-15T09:29:34;14.40;45.40
1936;DHT22;969;49.892;10.896;2023-02-15T09:31:59;14.50;45.20
1936;DHT22;969;49.892;10.896;2023-02-15T09:34:25;14.60;45.70
1936;DHT22;969;49.892;10.896;2023-02-15T09:36:51;14.60;45.10
1936;DHT22;969;49.892;10.896;2023-02-15T09:52:34;14.90;44.80
1936;DHT22;969;49.892;10.896;2023-02-15T09:55:24;15.00;44.90
1936;DHT22;969;49.892;10.896;2023-02-15T09:58:03;15.00;44.80
1936;DHT22;969;49.892;10.896;2023-02-15T10:01:01;15.10;44.80
1936;DHT22;969;49.892;10.896;2023-02-15T10:03:49;15.10;44.80
1936;DHT22;969;49.892;10.896;2023-02-15T10:06:33;15.20;44.80
1936;DHT22;969;49.892;10.896;2023-02-15T10:20:27;15.60;44.50
1936;DHT22;969;49.892;10.896;2023-02-15T10:25:51;15.80;44.40
1936;DHT22;969;49.892;10.896;2023-02-15T10:28:36;15.90;44.40
1936;DHT22;969;49.892;10.896;2023-02-15T10:34:18;16.00;44.20
1936;DHT22;969;49.892;10.896;2023-02-15T10:48:09;16.20;43.90
1936;DHT22;969;49.892;10.896;2023-02-15T10:50:46;16.30;43.90
1936;DHT22;969;49.892;10.896;2023-02-15T10:56:16;16.40;43.80
1936;DHT22;969;49.892;10.896;2023-02-15T11:06:52;16.50;43.60
1936;DHT22;969;49.892;10.896;2023-02-15T11:09:21;16.60;43.60
1936;DHT22;969;49.892;10.896;2023-02-15T11:11:53;16.60;43.50
1936;DHT22;969;49.892;10.896;2023-02-15T11:17:02;16.70;43.50
1936;DHT22;969;49.892;10.896;2023-02-15T11:19:37;16.70;43.40
1936;DHT22;969;49.892;10.896;2023-02-15T11:22:06;16.70;43.40
1936;DHT22;969;49.892;10.896;2023-02-15T11:24:42;16.80;43.40
1936;DHT22;969;49.892;10.896;2023-02-15T11:27:24;16.80;43.70
1936;DHT22;969;49.892;10.896;2023-02-15T11:29:53;16.80;43.60
1936;DHT22;969;49.892;10.896;2023-02-15T11:40:33;16.90;43.50
1936;DHT22;969;49.892;10.896;2023-02-15T11:43:04;16.90;43.60
1936;DHT22;969;49.892;10.896;2023-02-15T11:45:32;16.90;43.50
1936;DHT22;969;49.892;10.896;2023-02-15T11:48:00;17.00;43.60
1936;DHT22;969;49.892;10.896;2023-02-15T11:50:31;17.00;43.50
1936;DHT22;969;49.892;10.896;2023-02-15T11:53:18;17.00;44.00
1936;DHT22;969;49.892;10.896;2023-02-15T11:55:48;17.00;44.00
1936;DHT22;969;49.892;10.896;2023-02-15T11:58:29;17.00;43.40
1936;DHT22;969;49.892;10.896;2023-02-15T12:03:48;17.00;43.40
1936;DHT22;969;49.892;10.896;2023-02-15T12:06:28;17.00;43.50
1936;DHT22;969;49.892;10.896;2023-02-15T12:09:20;17.00;43.50
1936;DHT22;969;49.892;10.896;2023-02-15T12:11:49;17.00;43.40
1936;DHT22;969;49.892;10.896;2023-02-15T12:14:15;17.00;43.50
1936;DHT22;969;49.892;10.896;2023-02-15T12:16:49;17.00;43.50
1936;DHT22;969;49.892;10.896;2023-02-15T12:19:32;17.00;43.60
1936;DHT22;969;49.892;10.896;2023-02-15T12:22:03;17.00;43.50
1936;DHT22;969;49.892;10.896;2023-02-15T12:24:44;17.00;43.60
1936;DHT22;969;49.892;10.896;2023-02-15T12:27:23;17.00;43.60
1936;DHT22;969;49.892;10.896;2023-02-15T12:29:56;17.00;43.60
1936;DHT22;969;49.892;10.896;2023-02-15T12:32:46;17.00;43.50
1936;DHT22;969;49.892;10.896;2023-02-15T12:35:33;17.00;43.50
1936;DHT22;969;49.892;10.896;2023-02-15T12:40:34;17.10;43.60
1936;DHT22;969;49.892;10.896;2023-02-15T12:43:01;17.10;44.20
1936;DHT22;969;49.892;10.896;2023-02-15T12:45:36;17.10;43.60
1936;DHT22;969;49.892;10.896;2023-02-15T12:48:15;17.10;43.90
1936;DHT22;969;49.892;10.896;2023-02-15T12:50:43;17.10;44.20
1936;DHT22;969;49.892;10.896;2023-02-15T12:56:05;17.20;44.50
1936;DHT22;969;49.892;10.896;2023-02-15T12:58:33;17.30;44.50
1936;DHT22;969;49.892;10.896;2023-02-15T13:01:16;17.30;44.50
1936;DHT22;969;49.892;10.896;2023-02-15T13:04:15;17.40;44.50
1936;DHT22;969;49.892;10.896;2023-02-15T13:06:48;17.40;44.40
1936;DHT22;969;49.892;10.896;2023-02-15T13:09:17;17.40;44.40
1936;DHT22;969;49.892;10.896;2023-02-15T13:11:45;17.50;44.40
1936;DHT22;969;49.892;10.896;2023-02-15T13:14:32;17.50;44.30
1936;DHT22;969;49.892;10.896;2023-02-15T13:17:01;17.50;44.20
1936;DHT22;969;49.892;10.896;2023-02-15T13:19:35;17.50;44.20
1936;DHT22;969;49.892;10.896;2023-02-15T13:22:06;17.50;44.20
1936;DHT22;969;49.892;10.896;2023-02-15T13:24:39;17.60;44.30
1936;DHT22;969;49.892;10.896;2023-02-15T13:27:12;17.60;44.30
1936;DHT22;969;49.892;10.896;2023-02-15T13:29:38;17.60;44.30
1936;DHT22;969;49.892;10.896;2023-02-15T13:32:25;17.60;44.20
1936;DHT22;969;49.892;10.896;2023-02-15T13:34:56;17.60;44.20
1936;DHT22;969;49.892;10.896;2023-02-15T13:46:35;17.60;44.10
1936;DHT22;969;49.892;10.896;2023-02-15T13:55:03;17.60;44.20
1936;DHT22;969;49.892;10.896;2023-02-15T14:01:09;17.60;44.20
1936;DHT22;969;49.892;10.896;2023-02-15T14:03:51;17.60;44.30
1936;DHT22;969;49.892;10.896;2023-02-15T14:11:56;17.70;44.40
1936;DHT22;969;49.892;10.896;2023-02-15T14:17:14;17.70;44.30
1936;DHT22;969;49.892;10.896;2023-02-15T14:19:48;17.70;44.40
1936;DHT22;969;49.892;10.896;2023-02-15T14:22:31;17.70;44.30
1936;DHT22;969;49.892;10.896;2023-02-15T14:28:05;17.80;44.30
1936;DHT22;969;49.892;10.896;2023-02-15T14:30:37;17.80;44.20
1936;DHT22;969;49.892;10.896;2023-02-15T14:35:42;17.90;44.30
1936;DHT22;969;49.892;10.896;2023-02-15T14:38:24;17.80;44.10
1936;DHT22;969;49.892;10.896;2023-02-15T14:40:53;17.80;44.20
1936;DHT22;969;49.892;10.896;2023-02-15T14:48:49;17.90;44.40
1936;DHT22;969;49.892;10.896;2023-02-15T15:00:01;18.00;45.10
1936;DHT22;969;49.892;10.896;2023-02-15T15:02:51;18.10;45.20
1936;DHT22;969;49.892;10.896;2023-02-15T15:05:33;18.20;45.20
1936;DHT22;969;49.892;10.896;2023-02-15T15:08:01;18.30;45.20
1936;DHT22;969;49.892;10.896;2023-02-15T15:16:01;18.40;45.00
1936;DHT22;969;49.892;10.896;2023-02-15T15:18:47;18.40;45.00
1936;DHT22;969;49.892;10.896;2023-02-15T15:41:27;18.20;45.30
1936;DHT22;969;49.892;10.896;2023-02-15T15:50:14;18.00;44.90
1936;DHT22;969;49.892;10.896;2023-02-15T15:52:44;18.00;44.90
1936;DHT22;969;49.892;10.896;2023-02-15T15:55:17;17.90;44.90
1936;DHT22;969;49.892;10.896;2023-02-15T15:57:44;17.80;44.90
1936;DHT22;969;49.892;10.896;2023-02-15T16:00:50;17.80;44.90
1936;DHT22;969;49.892;10.896;2023-02-15T16:03:25;17.70;45.20
1936;DHT22;969;49.892;10.896;2023-02-15T16:05:51;17.60;45.20
1936;DHT22;969;49.892;10.896;2023-02-15T16:08:37;17.50;45.20
1936;DHT22;969;49.892;10.896;2023-02-15T16:11:23;17.50;45.20
1936;DHT22;969;49.892;10.896;2023-02-15T16:13:49;17.40;45.30
1936;DHT22;969;49.892;10.896;2023-02-15T16:16:24;17.40;45.50
1936;DHT22;969;49.892;10.896;2023-02-15T16:18:53;17.30;45.40
1936;DHT22;969;49.892;10.896;2023-02-15T16:21:22;17.30;45.40
1936;DHT22;969;49.892;10.896;2023-02-15T16:29:25;17.10;45.30
1936;DHT22;969;49.892;10.896;2023-02-15T16:32:06;17.10;45.50
1936;DHT22;969;49.892;10.896;2023-02-15T16:34:54;17.00;45.50
1936;DHT22;969;49.892;10.896;2023-02-15T16:37:21;17.00;45.50
1936;DHT22;969;49.892;10.896;2023-02-15T16:39:49;16.90;45.60
1936;DHT22;969;49.892;10.896;2023-02-15T16:42:16;16.90;45.70
1936;DHT22;969;49.892;10.896;2023-02-15T16:44:44;16.90;45.70
1936;DHT22;969;49.892;10.896;2023-02-15T16:47:31;16.80;45.70
1936;DHT22;969;49.892;10.896;2023-02-15T16:50:01;16.80;45.70
1936;DHT22;969;49.892;10.896;2023-02-15T16:52:28;16.80;45.70
1936;DHT22;969;49.892;10.896;2023-02-15T16:55:00;16.80;45.70
1936;DHT22;969;49.892;10.896;2023-02-15T16:57:30;16.80;45.70
1936;DHT22;969;49.892;10.896;2023-02-15T17:00:05;16.80;45.70
1936;DHT22;969;49.892;10.896;2023-02-15T17:02:32;16.70;45.60
1936;DHT22;969;49.892;10.896;2023-02-15T17:07:41;16.70;45.60
1936;DHT22;969;49.892;10.896;2023-02-15T17:10:27;16.70;45.60
1936;DHT22;969;49.892;10.896;2023-02-15T17:12:55;16.70;45.50
1936;DHT22;969;49.892;10.896;2023-02-15T17:20:37;16.70;45.50
1936;DHT22;969;49.892;10.896;2023-02-15T17:23:04;16.70;45.50
1936;DHT22;969;49.892;10.896;2023-02-15T17:25:39;16.70;45.50
1936;DHT22;969;49.892;10.896;2023-02-15T17:28:19;16.70;45.40
1936;DHT22;969;49.892;10.896;2023-02-15T17:30:46;16.70;45.40
1936;DHT22;969;49.892;10.896;2023-02-15T17:33:25;16.70;45.40
1936;DHT22;969;49.892;10.896;2023-02-15T17:36:04;16.70;45.40
1936;DHT22;969;49.892;10.896;2023-02-15T17:38:31;16.70;45.40
1936;DHT22;969;49.892;10.896;2023-02-15T17:40:57;16.70;45.30
1936;DHT22;969;49.892;10.896;2023-02-15T17:43:24;16.70;45.30
1936;DHT22;969;49.892;10.896;2023-02-15T17:45:50;16.70;45.30
1936;DHT22;969;49.892;10.896;2023-02-15T17:48:34;16.70;45.30
1936;DHT22;969;49.892;10.896;2023-02-15T17:51:02;16.70;45.30
1936;DHT22;969;49.892;10.896;2023-02-15T17:53:28;16.70;45.30
1936;DHT22;969;49.892;10.896;2023-02-15T17:55:54;16.70;45.20
1936;DHT22;969;49.892;10.896;2023-02-15T17:58:20;16.70;45.20
1936;DHT22;969;49.892;10.896;2023-02-15T18:00:56;16.70;45.30
1936;DHT22;969;49.892;10.896;2023-02-15T18:03:49;16.70;45.20
1936;DHT22;969;49.892;10.896;2023-02-15T18:06:35;16.70;45.20
1936;DHT22;969;49.892;10.896;2023-02-15T18:09:20;16.70;45.20
1936;DHT22;969;49.892;10.896;2023-02-15T18:12:26;16.70;45.40
1936;DHT22;969;49.892;10.896;2023-02-15T18:14:53;16.70;45.30
1936;DHT22;969;49.892;10.896;2023-02-15T18:17:24;16.70;45.30
1936;DHT22;969;49.892;10.896;2023-02-15T18:19:51;16.70;45.20
1936;DHT22;969;49.892;10.896;2023-02-15T18:22:18;16.70;45.20
1936;DHT22;969;49.892;10.896;2023-02-15T18:24:45;16.70;45.20
1936;DHT22;969;49.892;10.896;2023-02-15T18:27:11;16.70;45.20
1936;DHT22;969;49.892;10.896;2023-02-15T18:29:37;16.70;45.10
1936;DHT22;969;49.892;10.896;2023-02-15T18:32:06;16.70;45.10
1936;DHT22;969;49.892;10.896;2023-02-15T18:34:38;16.70;45.10
1936;DHT22;969;49.892;10.896;2023-02-15T18:37:05;16.70;45.10
1936;DHT22;969;49.892;10.896;2023-02-15T18:39:50;16.70;45.10
1936;DHT22;969;49.892;10.896;2023-02-15T18:44:43;16.70;45.10
1936;DHT22;969;49.892;10.896;2023-02-15T18:47:09;16.60;45.00
1936;DHT22;969;49.892;10.896;2023-02-15T18:49:34;16.70;45.10
1936;DHT22;969;49.892;10.896;2023-02-15T18:52:01;16.60;45.00
1936;DHT22;969;49.892;10.896;2023-02-15T18:54:26;16.60;45.00
1936;DHT22;969;49.892;10.896;2023-02-15T18:56:57;16.70;45.10
1936;DHT22;969;49.892;10.896;2023-02-15T18:59:26;16.60;45.00
1936;DHT22;969;49.892;10.896;2023-02-15T19:01:53;16.60;45.50
1936;DHT22;969;49.892;10.896;2023-02-15T19:04:19;16.60;45.00
1936;DHT22;969;49.892;10.896;2023-02-15T19:06:46;16.60;44.90
1936;DHT22;969;49.892;10.896;2023-02-15T19:09:18;16.60;44.90
1936;DHT22;969;49.892;10.896;2023-02-15T19:11:52;16.60;45.10
1936;DHT22;969;49.892;10.896;2023-02-15T19:16:51;16.60;45.00
1936;DHT22;969;49.892;10.896;2023-02-15T19:19:17;16.60;44.90
1936;DHT22;969;49.892;10.896;2023-02-15T19:21:42;16.60;44.90
1936;DHT22;969;49.892;10.896;2023-02-15T19:24:15;16.60;44.90
1936;DHT22;969;49.892;10.896;2023-02-15T19:26:42;16.60;44.80
1936;DHT22;969;49.892;10.896;2023-02-15T19:29:10;16.60;44.80
1936;DHT22;969;49.892;10.896;2023-02-15T19:31:36;16.60;44.80
1936;DHT22;969;49.892;10.896;2023-02-15T19:34:14;16.60;44.80
1936;DHT22;969;49.892;10.896;2023-02-15T19:36:40;16.60;44.70
1936;DHT22;969;49.892;10.896;2023-02-15T19:39:20;16.60;44.70
1936;DHT22;969;49.892;10.896;2023-02-15T19:41:47;16.70;44.70
1936;DHT22;969;49.892;10.896;2023-02-15T19:44:12;16.70;44.70
1936;DHT22;969;49.892;10.896;2023-02-15T19:46:38;16.70;44.70
1936;DHT22;969;49.892;10.896;2023-02-15T19:49:03;16.70;44.60
1936;DHT22;969;49.892;10.896;2023-02-15T19:51:29;16.70;44.60
1936;DHT22;969;49.892;10.896;2023-02-15T19:53:55;16.80;44.60
1936;DHT22;969;49.892;10.896;2023-02-15T19:56:22;16.70;44.50
1936;DHT22;969;49.892;10.896;2023-02-15T19:58:49;16.70;44.50
1936;DHT22;969;49.892;10.896;2023-02-15T20:01:17;16.70;44.50
1936;DHT22;969;49.892;10.896;2023-02-15T20:03:42;16.70;44.50
1936;DHT22;969;49.892;10.896;2023-02-15T20:06:15;16.70;44.40
1936;DHT22;969;49.892;10.896;2023-02-15T20:08:41;16.70;44.40
1936;DHT22;969;49.892;10.896;2023-02-15T20:11:11;16.70;44.40
1936;DHT22;969;49.892;10.896;2023-02-15T20:13:37;16.80;44.50
1936;DHT22;969;49.892;10.896;2023-02-15T20:16:03;16.70;44.40
1936;DHT22;969;49.892;10.896;2023-02-15T20:18:35;16.70;44.40
1936;DHT22;969;49.892;10.896;2023-02-15T20:21:01;16.70;44.30
1936;DHT22;969;49.892;10.896;2023-02-15T20:23:30;16.70;44.50
1936;DHT22;969;49.892;10.896;2023-02-15T20:25:58;16.70;44.60
1936;DHT22;969;49.892;10.896;2023-02-15T20:28:26;16.80;44.70
1936;DHT22;969;49.892;10.896;2023-02-15T20:30:52;16.70;44.60
1936;DHT22;969;49.892;10.896;2023-02-15T20:33:19;16.70;44.60
1936;DHT22;969;49.892;10.896;2023-02-15T20:35:46;16.70;44.60
1936;DHT22;969;49.892;10.896;2023-02-15T20:40:45;16.70;44.60
1936;DHT22;969;49.892;10.896;2023-02-15T20:43:30;16.70;44.50
1936;DHT22;969;49.892;10.896;2023-02-15T20:45:55;16.70;44.60
1936;DHT22;969;49.892;10.896;2023-02-15T20:48:21;16.70;44.60
1936;DHT22;969;49.892;10.896;2023-02-15T20:50:46;16.70;44.60
1936;DHT22;969;49.892;10.896;2023-02-15T20:53:12;16.60;44.40
1936;DHT22;969;49.892;10.896;2023-02-15T20:55:38;16.60;44.40
1936;DHT22;969;49.892;10.896;2023-02-15T20:58:27;16.60;44.50
1936;DHT22;969;49.892;10.896;2023-02-15T21:00:57;16.60;44.50
1936;DHT22;969;49.892;10.896;2023-02-15T21:03:24;16.60;44.40
1936;DHT22;969;49.892;10.896;2023-02-15T21:05:52;16.60;44.50
1936;DHT22;969;49.892;10.896;2023-02-15T21:08:19;16.60;44.50
1936;DHT22;969;49.892;10.896;2023-02-15T21:10:47;16.60;44.50
1936;DHT22;969;49.892;10.896;2023-02-15T21:13:29;16.60;44.50
1936;DHT22;969;49.892;10.896;2023-02-15T21:15:56;16.60;44.50
1936;DHT22;969;49.892;10.896;2023-02-15T21:18:28;16.60;44.50
1936;DHT22;969;49.892;10.896;2023-02-15T21:20:56;16.50;44.40
1936;DHT22;969;49.892;10.896;2023-02-15T21:23:37;16.50;44.50
1936;DHT22;969;49.892;10.896;2023-02-15T21:26:04;16.60;44.50
1936;DHT22;969;49.892;10.896;2023-02-15T21:28:30;16.50;44.40
1936;DHT22;969;49.892;10.896;2023-02-15T21:30:56;16.50;44.40
1936;DHT22;969;49.892;10.896;2023-02-15T21:33:23;16.50;44.40
1936;DHT22;969;49.892;10.896;2023-02-15T21:35:53;16.50;44.40
1936;DHT22;969;49.892;10.896;2023-02-15T21:38:24;16.50;44.40
1936;DHT22;969;49.892;10.896;2023-02-15T21:40:52;16.50;44.40
1936;DHT22;969;49.892;10.896;2023-02-15T21:43:19;16.50;44.40
1936;DHT22;969;49.892;10.896;2023-02-15T21:46:13;16.50;44.40
1936;DHT22;969;49.892;10.896;2023-02-15T21:48:58;16.50;44.40
1936;DHT22;969;49.892;10.896;2023-02-15T21:51:24;16.50;44.40
1936;DHT22;969;49.892;10.896;2023-02-15T21:54:11;16.40;44.40
1936;DHT22;969;49.892;10.896;2023-02-15T21:56:37;16.40;44.40
1936;DHT22;969;49.892;10.896;2023-02-15T21:59:11;16.50;44.50
1936;DHT22;969;49.892;10.896;2023-02-15T22:01:39;16.50;44.40
1936;DHT22;969;49.892;10.896;2023-02-15T22:04:13;16.40;44.40
1936;DHT22;969;49.892;10.896;2023-02-15T22:06:39;16.50;44.40
1936;DHT22;969;49.892;10.896;2023-02-15T22:09:15;16.40;44.30
1936;DHT22;969;49.892;10.896;2023-02-15T22:11:41;16.50;44.40
1936;DHT22;969;49.892;10.896;2023-02-15T22:14:37;16.50;44.40
1936;DHT22;969;49.892;10.896;2023-02-15T22:19:38;16.40;44.20
1936;DHT22;969;49.892;10.896;2023-02-15T22:22:03;16.40;44.20
1936;DHT22;969;49.892;10.896;2023-02-15T22:24:29;16.50;44.20
1936;DHT22;969;49.892;10.896;2023-02-15T22:26:54;16.40;44.10
1936;DHT22;969;49.892;10.896;2023-02-15T22:29:20;16.50;44.30
1936;DHT22;969;49.892;10.896;2023-02-15T22:31:46;16.50;44.20
1936;DHT22;969;49.892;10.896;2023-02-15T22:34:28;16.50;44.20
1936;DHT22;969;49.892;10.896;2023-02-15T22:36:55;16.50;44.10
1936;DHT22;969;49.892;10.896;2023-02-15T22:39:21;16.50;44.20
1936;DHT22;969;49.892;10.896;2023-02-15T22:41:47;16.50;44.20
1936;DHT22;969;49.892;10.896;2023-02-15T22:44:22;16.40;44.00
1936;DHT22;969;49.892;10.896;2023-02-15T22:46:50;16.50;44.20
1936;DHT22;969;49.892;10.896;2023-02-15T22:49:16;16.40;44.10
1936;DHT22;969;49.892;10.896;2023-02-15T22:51:46;16.40;44.10
1936;DHT22;969;49.892;10.896;2023-02-15T22:54:13;16.40;44.20
1936;DHT22;969;49.892;10.896;2023-02-15T22:56:48;16.40;44.20
1936;DHT22;969;49.892;10.896;2023-02-15T22:59:25;16.40;44.10
1936;DHT22;969;49.892;10.896;2023-02-15T23:01:55;16.40;44.20
1936;DHT22;969;49.892;10.896;2023-02-15T23:04:26;16.40;44.20
1936;DHT22;969;49.892;10.896;2023-02-15T23:06:52;16.30;44.20
1936;DHT22;969;49.892;10.896;2023-02-15T23:09:20;16.30;44.20
1936;DHT22;969;49.892;10.896;2023-02-15T23:11:47;16.30;44.20
1936;DHT22;969;49.892;10.896;2023-02-15T23:14:25;16.30;44.20
1936;DHT22;969;49.892;10.896;2023-02-15T23:16:52;16.30;44.30
1936;DHT22;969;49.892;10.896;2023-02-15T23:19:18;16.20;44.20
1936;DHT22;969;49.892;10.896;2023-02-15T23:21:44;16.20;44.20
1936;DHT22;969;49.892;10.896;2023-02-15T23:24:26;16.20;44.20
1936;DHT22;969;49.892;10.896;2023-02-15T23:26:52;16.20;44.30
1936;DHT22;969;49.892;10.896;2023-02-15T23:29:22;16.20;44.30
1936;DHT22;969;49.892;10.896;2023-02-15T23:31:53;16.20;44.30
1936;DHT22;969;49.892;10.896;2023-02-15T23:34:27;16.20;44.30
1936;DHT22;969;49.892;10.896;2023-02-15T23:36:54;16.10;44.20
1936;DHT22;969;49.892;10.896;2023-02-15T23:39:25;16.20;44.40
1936;DHT22;969;49.892;10.896;2023-02-15T23:42:19;16.10;44.30
1936;DHT22;969;49.892;10.896;2023-02-15T23:44:46;16.10;44.30
1936;DHT22;969;49.892;10.896;2023-02-15T23:47:20;16.10;44.30
1936;DHT22;969;49.892;10.896;2023-02-15T23:50:25;16.10;44.30
1936;DHT22;969;49.892;10.896;2023-02-15T23:52:52;16.00;44.20
1936;DHT22;969;49.892;10.896;2023-02-15T23:55:19;16.00;44.30
1936;DHT22;969;49.892;10.896;2023-02-15T23:57:45;16.00;44.30
